createdAt,value
2016-08-17T00:00:08.494Z,988.43
2016-08-17T00:01:08.435Z,988.45
2016-08-17T00:02:08.435Z,988.44
2016-08-17T00:03:08.437Z,988.4
2016-08-17T00:04:08.438Z,988.43
2016-08-17T00:05:08.501Z,988.43
2016-08-17T00:06:08.442Z,988.48
2016-08-17T00:07:08.446Z,988.44
2016-08-17T00:08:08.448Z,988.48
2016-08-17T00:09:08.450Z,988.51
2016-08-17T00:10:08.543Z,988.48
2016-08-17T00:11:08.455Z,988.45
2016-08-17T00:12:08.456Z,988.48
2016-08-17T00:13:08.460Z,988.45
2016-08-17T00:14:08.461Z,988.49
2016-08-17T00:15:08.516Z,988.47
2016-08-17T00:16:08.465Z,988.49
2016-08-17T00:17:08.466Z,988.43
2016-08-17T00:18:08.469Z,988.44
2016-08-17T00:19:08.471Z,988.44
2016-08-17T00:20:08.581Z,988.43
2016-08-17T00:21:08.488Z,988.44
2016-08-17T00:22:08.486Z,988.41
2016-08-17T00:23:08.490Z,988.4
2016-08-17T00:24:08.490Z,988.38
2016-08-17T00:25:08.512Z,988.37
2016-08-17T00:26:08.491Z,988.41
2016-08-17T00:27:08.490Z,988.39
2016-08-17T00:28:08.491Z,988.43
2016-08-17T00:29:08.491Z,988.43
2016-08-17T00:30:08.619Z,988.41
2016-08-17T00:31:08.505Z,988.44
2016-08-17T00:32:08.506Z,988.44
2016-08-17T00:33:08.501Z,988.41
2016-08-17T00:34:08.503Z,988.42
2016-08-17T00:35:08.621Z,988.42
2016-08-17T00:36:08.510Z,988.39
2016-08-17T00:37:08.520Z,988.4
2016-08-17T00:38:08.511Z,988.36
2016-08-17T00:39:08.516Z,988.35
2016-08-17T00:40:08.627Z,988.35
2016-08-17T00:41:08.519Z,988.31
2016-08-17T00:42:08.521Z,988.35
2016-08-17T00:43:08.529Z,988.31
2016-08-17T00:44:08.529Z,988.34
2016-08-17T00:45:08.652Z,988.33
2016-08-17T00:46:08.530Z,988.37
2016-08-17T00:47:08.533Z,988.36
2016-08-17T00:48:08.533Z,988.34
2016-08-17T00:49:08.534Z,988.34
2016-08-17T00:50:08.637Z,988.3
2016-08-17T00:51:08.542Z,988.31
2016-08-17T00:52:08.540Z,988.3
2016-08-17T00:53:08.542Z,988.3
2016-08-17T00:54:08.544Z,988.3
2016-08-17T00:55:08.662Z,988.26
2016-08-17T00:56:08.548Z,988.32
2016-08-17T00:57:08.563Z,988.31
2016-08-17T00:58:08.551Z,988.29
2016-08-17T00:59:08.588Z,988.28
2016-08-17T01:00:08.686Z,988.31
2016-08-17T01:01:08.567Z,988.31
2016-08-17T01:02:08.567Z,988.3
2016-08-17T01:03:08.568Z,988.29
2016-08-17T01:04:08.567Z,988.31
2016-08-17T01:05:08.648Z,988.33
2016-08-17T01:06:08.570Z,988.3
2016-08-17T01:07:08.569Z,988.32
2016-08-17T01:08:08.580Z,988.35
2016-08-17T01:09:08.574Z,988.32
2016-08-17T01:10:08.635Z,988.3
2016-08-17T01:11:08.585Z,988.28
2016-08-17T01:12:08.579Z,988.28
2016-08-17T01:13:08.582Z,988.27
2016-08-17T01:14:08.590Z,988.29
2016-08-17T01:15:08.693Z,988.31
2016-08-17T01:16:08.587Z,988.33
2016-08-17T01:17:08.591Z,988.37
2016-08-17T01:18:08.594Z,988.37
2016-08-17T01:19:08.598Z,988.38
2016-08-17T01:20:08.653Z,988.37
2016-08-17T01:21:08.598Z,988.38
2016-08-17T01:22:08.601Z,988.37
2016-08-17T01:23:08.608Z,988.37
2016-08-17T01:24:08.604Z,988.39
2016-08-17T01:25:08.697Z,988.37
2016-08-17T01:26:08.609Z,988.39
2016-08-17T01:27:08.609Z,988.41
2016-08-17T01:28:08.611Z,988.38
2016-08-17T01:29:08.615Z,988.39
2016-08-17T01:30:08.702Z,988.39
2016-08-17T01:31:08.617Z,988.36
2016-08-17T01:32:08.620Z,988.35
2016-08-17T01:33:08.626Z,988.3
2016-08-17T01:34:08.623Z,988.31
2016-08-17T01:35:08.704Z,988.34
2016-08-17T01:36:08.627Z,988.31
2016-08-17T01:37:08.630Z,988.32
2016-08-17T01:38:08.631Z,988.35
2016-08-17T01:39:08.632Z,988.33
2016-08-17T01:40:08.720Z,988.29
2016-08-17T01:41:08.648Z,988.27
2016-08-17T01:42:08.652Z,988.26
2016-08-17T01:43:08.648Z,988.26
2016-08-17T01:44:08.647Z,988.21
2016-08-17T01:45:08.713Z,988.2
2016-08-17T01:46:08.652Z,988.23
2016-08-17T01:47:08.648Z,988.22
2016-08-17T01:48:08.651Z,988.24
2016-08-17T01:49:08.652Z,988.22
2016-08-17T01:50:08.717Z,988.2
2016-08-17T01:51:08.655Z,988.18
2016-08-17T01:52:08.658Z,988.16
2016-08-17T01:53:08.668Z,988.17
2016-08-17T01:54:08.663Z,988.21
2016-08-17T01:55:08.733Z,988.23
2016-08-17T01:56:08.670Z,988.26
2016-08-17T01:57:08.672Z,988.25
2016-08-17T01:58:08.671Z,988.26
2016-08-17T01:59:08.673Z,988.23
2016-08-17T02:00:08.734Z,988.21
2016-08-17T02:01:08.673Z,988.19
2016-08-17T02:02:08.677Z,988.19
2016-08-17T02:03:08.682Z,988.19
2016-08-17T02:04:08.680Z,988.15
2016-08-17T02:05:08.815Z,988.17
2016-08-17T02:06:08.684Z,988.17
2016-08-17T02:07:08.684Z,988.16
2016-08-17T02:08:08.687Z,988.15
2016-08-17T02:09:08.690Z,988.15
2016-08-17T02:10:08.794Z,988.13
2016-08-17T02:11:08.693Z,988.15
2016-08-17T02:12:08.697Z,988.16
2016-08-17T02:13:08.698Z,988.17
2016-08-17T02:14:08.703Z,988.16
2016-08-17T02:15:08.833Z,988.16
2016-08-17T02:16:08.703Z,988.1
2016-08-17T02:17:08.704Z,988.12
2016-08-17T02:18:08.706Z,988.13
2016-08-17T02:19:08.709Z,988.1
2016-08-17T02:20:08.817Z,988.07
2016-08-17T02:21:08.711Z,988.08
2016-08-17T02:22:08.715Z,988.03
2016-08-17T02:23:08.726Z,988.03
2016-08-17T02:24:08.718Z,988.01
2016-08-17T02:25:08.851Z,988.04
2016-08-17T02:26:08.722Z,988.03
2016-08-17T02:27:08.723Z,988
2016-08-17T02:28:08.727Z,988.02
2016-08-17T02:29:08.727Z,988.05
2016-08-17T02:30:08.850Z,988.01
2016-08-17T02:31:08.730Z,988.04
2016-08-17T02:32:08.732Z,988.03
2016-08-17T02:33:08.733Z,987.99
2016-08-17T02:34:08.735Z,988.04
2016-08-17T02:35:08.885Z,988.02
2016-08-17T02:36:08.740Z,988.07
2016-08-17T02:37:08.742Z,988.03
2016-08-17T02:38:08.750Z,988.03
2016-08-17T02:39:08.752Z,988.05
2016-08-17T02:40:08.874Z,988.03
2016-08-17T02:41:08.754Z,988.02
2016-08-17T02:42:08.753Z,988.02
2016-08-17T02:43:08.752Z,988.03
2016-08-17T02:44:08.753Z,987.99
2016-08-17T02:45:08.872Z,987.99
2016-08-17T02:46:08.757Z,988.01
2016-08-17T02:47:08.760Z,988
2016-08-17T02:48:08.762Z,987.98
2016-08-17T02:49:08.763Z,988.02
2016-08-17T02:50:08.874Z,988.01
2016-08-17T02:51:08.766Z,988.05
2016-08-17T02:52:08.769Z,988.05
2016-08-17T02:53:08.769Z,988.05
2016-08-17T02:54:08.770Z,988.04
2016-08-17T02:55:08.878Z,988.06
2016-08-17T02:56:08.778Z,988.07
2016-08-17T02:57:08.777Z,988.04
2016-08-17T02:58:08.779Z,988.05
2016-08-17T02:59:08.779Z,988.07
2016-08-17T03:00:08.899Z,988.13
2016-08-17T03:01:08.784Z,988.12
2016-08-17T03:02:08.794Z,988.12
2016-08-17T03:03:08.786Z,988.12
2016-08-17T03:04:08.787Z,988.14
2016-08-17T03:05:08.886Z,988.13
2016-08-17T03:06:08.796Z,988.13
2016-08-17T03:07:08.796Z,988.12
2016-08-17T03:08:08.796Z,988.14
2016-08-17T03:09:08.797Z,988.15
2016-08-17T03:10:08.932Z,988.15
2016-08-17T03:11:08.806Z,988.12
2016-08-17T03:12:08.802Z,988.1
2016-08-17T03:13:08.803Z,988.08
2016-08-17T03:14:08.805Z,988.08
2016-08-17T03:15:08.895Z,988.06
2016-08-17T03:16:08.807Z,988.08
2016-08-17T03:17:08.810Z,988.14
2016-08-17T03:18:08.820Z,988.12
2016-08-17T03:19:08.814Z,988.13
2016-08-17T03:20:08.947Z,988.1
2016-08-17T03:21:08.817Z,988.07
2016-08-17T03:22:08.819Z,988.11
2016-08-17T03:23:08.820Z,988.1
2016-08-17T03:24:08.823Z,988.1
2016-08-17T03:25:08.981Z,988.1
2016-08-17T03:26:08.825Z,988.15
2016-08-17T03:27:08.827Z,988.12
2016-08-17T03:28:08.828Z,988.15
2016-08-17T03:29:08.831Z,988.16
2016-08-17T03:30:09.006Z,988.13
2016-08-17T03:31:08.833Z,988.15
2016-08-17T03:32:08.835Z,988.14
2016-08-17T03:33:08.837Z,988.16
2016-08-17T03:34:08.840Z,988.16
2016-08-17T03:35:09.039Z,988.17
2016-08-17T03:36:08.843Z,988.15
2016-08-17T03:37:08.844Z,988.18
2016-08-17T03:38:08.844Z,988.19
2016-08-17T03:39:08.847Z,988.19
2016-08-17T03:40:09.021Z,988.21
2016-08-17T03:41:08.851Z,988.22
2016-08-17T03:42:08.852Z,988.16
2016-08-17T03:43:08.854Z,988.18
2016-08-17T03:44:08.857Z,988.16
2016-08-17T03:45:09.007Z,988.13
2016-08-17T03:46:08.860Z,988.11
2016-08-17T03:47:08.862Z,988.1
2016-08-17T03:48:08.864Z,988.08
2016-08-17T03:49:08.864Z,988.09
2016-08-17T03:50:09.019Z,988.07
2016-08-17T03:51:08.868Z,988.03
2016-08-17T03:52:08.870Z,988.08
2016-08-17T03:53:08.871Z,988.14
2016-08-17T03:54:08.872Z,988.11
2016-08-17T03:55:09.054Z,988.09
2016-08-17T03:56:08.875Z,988.1
2016-08-17T03:57:08.879Z,988.07
2016-08-17T03:58:08.879Z,988.02
2016-08-17T03:59:08.883Z,988.02
2016-08-17T04:00:09.012Z,988.05
2016-08-17T04:01:08.885Z,988
2016-08-17T04:02:08.887Z,988.02
2016-08-17T04:03:08.888Z,988.03
2016-08-17T04:04:08.888Z,987.99
2016-08-17T04:05:09.037Z,987.98
2016-08-17T04:06:08.892Z,988
2016-08-17T04:07:08.893Z,988.01
2016-08-17T04:08:08.895Z,988
2016-08-17T04:09:08.897Z,987.99
2016-08-17T04:10:09.014Z,988.02
2016-08-17T04:11:08.900Z,988
2016-08-17T04:12:08.901Z,988.02
2016-08-17T04:13:08.903Z,987.96
2016-08-17T04:14:08.905Z,987.99
2016-08-17T04:15:08.912Z,987.96
2016-08-17T04:16:08.909Z,987.98
2016-08-17T04:17:08.910Z,987.99
2016-08-17T04:18:08.911Z,988.01
2016-08-17T04:19:08.913Z,988
2016-08-17T04:20:09.043Z,987.99
2016-08-17T04:21:08.917Z,987.99
2016-08-17T04:22:08.917Z,987.98
2016-08-17T04:23:08.919Z,987.96
2016-08-17T04:24:08.934Z,987.96
2016-08-17T04:25:08.923Z,987.96
2016-08-17T04:26:08.926Z,987.95
2016-08-17T04:27:08.927Z,987.95
2016-08-17T04:28:08.928Z,987.98
2016-08-17T04:29:08.930Z,988.01
2016-08-17T04:30:09.044Z,988
2016-08-17T04:31:08.932Z,988.02
2016-08-17T04:32:08.934Z,988.04
2016-08-17T04:33:08.935Z,988.02
2016-08-17T04:34:08.937Z,988.02
2016-08-17T04:35:09.035Z,988.04
2016-08-17T04:36:08.941Z,988.05
2016-08-17T04:37:08.942Z,988.05
2016-08-17T04:38:08.944Z,988.04
2016-08-17T04:39:08.947Z,988.01
2016-08-17T04:40:09.038Z,988.07
2016-08-17T04:41:08.948Z,988
2016-08-17T04:42:08.951Z,988.03
2016-08-17T04:43:08.953Z,988.04
2016-08-17T04:44:08.954Z,988
2016-08-17T04:45:09.051Z,988.03
2016-08-17T04:46:08.957Z,988.02
2016-08-17T04:47:08.959Z,988.02
2016-08-17T04:48:08.962Z,988.02
2016-08-17T04:49:08.962Z,988.02
2016-08-17T04:50:09.055Z,988.02
2016-08-17T04:51:08.964Z,988.04
2016-08-17T04:52:08.967Z,988.02
2016-08-17T04:53:08.970Z,988.03
2016-08-17T04:54:08.970Z,988.02
2016-08-17T04:55:09.144Z,988.03
2016-08-17T04:56:08.976Z,988.03
2016-08-17T04:57:08.975Z,988.04
2016-08-17T04:58:08.978Z,988.05
2016-08-17T04:59:08.984Z,988
2016-08-17T05:00:09.167Z,988
2016-08-17T05:01:08.982Z,987.99
2016-08-17T05:02:08.983Z,987.96
2016-08-17T05:03:08.986Z,987.96
2016-08-17T05:04:08.988Z,987.96
2016-08-17T05:05:09.178Z,987.99
2016-08-17T05:06:08.994Z,987.98
2016-08-17T05:07:08.993Z,988
2016-08-17T05:08:08.996Z,987.96
2016-08-17T05:09:08.996Z,988.01
2016-08-17T05:10:09.110Z,988.04
2016-08-17T05:11:09.000Z,988.04
2016-08-17T05:12:09.002Z,988.06
2016-08-17T05:13:09.003Z,988.05
2016-08-17T05:14:09.005Z,988.04
2016-08-17T05:15:09.197Z,988.02
2016-08-17T05:16:09.013Z,988.04
2016-08-17T05:17:09.010Z,987.99
2016-08-17T05:18:09.013Z,988
2016-08-17T05:19:09.015Z,987.97
2016-08-17T05:20:09.169Z,987.98
2016-08-17T05:21:09.020Z,988
2016-08-17T05:22:09.022Z,987.96
2016-08-17T05:23:09.025Z,987.99
2016-08-17T05:24:09.027Z,988.03
2016-08-17T05:25:09.211Z,988.02
2016-08-17T05:26:09.037Z,987.98
2016-08-17T05:27:09.032Z,988.05
2016-08-17T05:28:09.035Z,987.98
2016-08-17T05:29:09.036Z,988.02
2016-08-17T05:30:09.217Z,987.98
2016-08-17T05:31:09.046Z,988.03
2016-08-17T05:32:09.043Z,988
2016-08-17T05:33:09.044Z,988.01
2016-08-17T05:34:09.046Z,988.03
2016-08-17T05:35:09.183Z,988.03
2016-08-17T05:36:09.050Z,988.02
2016-08-17T05:37:09.053Z,988.04
2016-08-17T05:38:09.055Z,988.01
2016-08-17T05:39:09.058Z,988.06
2016-08-17T05:40:09.197Z,988.07
2016-08-17T05:41:09.062Z,988.08
2016-08-17T05:42:09.063Z,988.05
2016-08-17T05:43:09.068Z,988.04
2016-08-17T05:44:09.068Z,988.03
2016-08-17T05:45:09.225Z,988.02
2016-08-17T05:46:09.074Z,988
2016-08-17T05:47:09.076Z,988.01
2016-08-17T05:48:09.079Z,988.01
2016-08-17T05:49:09.083Z,988.01
2016-08-17T05:50:09.212Z,987.99
2016-08-17T05:51:09.085Z,988
2016-08-17T05:52:09.088Z,988.03
2016-08-17T05:53:09.091Z,988.01
2016-08-17T05:54:09.093Z,988.03
2016-08-17T05:55:09.244Z,987.98
2016-08-17T05:56:09.098Z,988.03
2016-08-17T05:57:09.100Z,987.96
2016-08-17T05:58:09.106Z,988.01
2016-08-17T05:59:09.109Z,987.96
2016-08-17T06:00:09.218Z,988.01
2016-08-17T06:01:09.110Z,988.02
2016-08-17T06:02:09.114Z,987.99
2016-08-17T06:03:09.118Z,988.01
2016-08-17T06:04:09.118Z,988.08
2016-08-17T06:05:09.324Z,988.09
2016-08-17T06:06:09.124Z,988.01
2016-08-17T06:07:09.127Z,988.03
2016-08-17T06:08:09.128Z,987.98
2016-08-17T06:09:09.130Z,988
2016-08-17T06:10:09.316Z,988.01
2016-08-17T06:11:09.137Z,988.01
2016-08-17T06:12:09.138Z,988.02
2016-08-17T06:13:09.142Z,988.04
2016-08-17T06:14:09.144Z,988.05
2016-08-17T06:15:09.332Z,988.05
2016-08-17T06:16:09.148Z,988.06
2016-08-17T06:17:09.151Z,988.08
2016-08-17T06:18:09.154Z,988.13
2016-08-17T06:19:09.157Z,988.15
2016-08-17T06:20:09.338Z,988.08
2016-08-17T06:21:09.163Z,988.11
2016-08-17T06:22:09.165Z,988.07
2016-08-17T06:23:09.169Z,988.07
2016-08-17T06:24:09.169Z,988.08
2016-08-17T06:25:09.282Z,988.1
2016-08-17T06:26:09.175Z,988.09
2016-08-17T06:27:09.179Z,988.14
2016-08-17T06:28:09.180Z,988.18
2016-08-17T06:29:09.184Z,988.15
2016-08-17T06:30:09.381Z,988.17
2016-08-17T06:31:09.188Z,988.14
2016-08-17T06:32:09.193Z,988.06
2016-08-17T06:33:09.196Z,988.07
2016-08-17T06:34:09.197Z,988.02
2016-08-17T06:35:09.354Z,988.06
2016-08-17T06:36:09.203Z,988.06
2016-08-17T06:37:09.214Z,988.09
2016-08-17T06:38:09.210Z,988.07
2016-08-17T06:39:09.212Z,988.05
2016-08-17T06:40:09.411Z,988.01
2016-08-17T06:41:09.216Z,988.04
2016-08-17T06:42:09.219Z,988.05
2016-08-17T06:43:09.223Z,988.08
2016-08-17T06:44:09.235Z,988.06
2016-08-17T06:45:09.401Z,988.04
2016-08-17T06:46:09.231Z,988.01
2016-08-17T06:47:09.234Z,988.08
2016-08-17T06:48:09.236Z,988.05
2016-08-17T06:49:09.239Z,988.08
2016-08-17T06:50:09.454Z,988.04
2016-08-17T06:51:09.246Z,988.06
2016-08-17T06:52:09.248Z,988.03
2016-08-17T06:53:09.252Z,988.1
2016-08-17T06:54:09.265Z,988.06
2016-08-17T06:55:09.438Z,988.08
2016-08-17T06:56:09.266Z,988.08
2016-08-17T06:57:09.266Z,988.06
2016-08-17T06:58:09.269Z,988.05
2016-08-17T06:59:09.269Z,988.05
2016-08-17T07:00:09.456Z,988.02
2016-08-17T07:01:09.276Z,988.02
2016-08-17T07:02:09.279Z,988.07
2016-08-17T07:03:09.286Z,988.08
2016-08-17T07:04:09.283Z,988.1
2016-08-17T07:05:09.407Z,988.08
2016-08-17T07:06:09.288Z,988.08
2016-08-17T07:07:09.292Z,988.08
2016-08-17T07:08:09.295Z,988.06
2016-08-17T07:09:09.302Z,988.07
2016-08-17T07:10:09.520Z,988.04
2016-08-17T07:11:09.303Z,988.03
2016-08-17T07:12:09.306Z,988.02
2016-08-17T07:13:09.311Z,988.06
2016-08-17T07:14:09.311Z,988.07
2016-08-17T07:15:09.471Z,988.09
2016-08-17T07:16:09.317Z,988.1
2016-08-17T07:17:09.320Z,988.07
2016-08-17T07:18:09.322Z,988.13
2016-08-17T07:19:09.326Z,988.08
2016-08-17T07:20:09.495Z,988.11
2016-08-17T07:21:09.335Z,988.12
2016-08-17T07:22:09.339Z,988.13
2016-08-17T07:23:09.340Z,988.13
2016-08-17T07:24:09.343Z,988.13
2016-08-17T07:25:09.469Z,988.16
2016-08-17T07:26:09.346Z,988.1
2016-08-17T07:27:09.350Z,988.12
2016-08-17T07:28:09.352Z,988.14
2016-08-17T07:29:09.356Z,988.16
2016-08-17T07:30:09.525Z,988.14
2016-08-17T07:31:09.363Z,988.17
2016-08-17T07:32:09.364Z,988.19
2016-08-17T07:33:09.373Z,988.21
2016-08-17T07:34:09.372Z,988.23
2016-08-17T07:35:09.491Z,988.23
2016-08-17T07:36:09.377Z,988.23
2016-08-17T07:37:09.381Z,988.26
2016-08-17T07:38:09.382Z,988.24
2016-08-17T07:39:09.390Z,988.2
2016-08-17T07:40:09.626Z,988.26
2016-08-17T07:41:09.392Z,988.24
2016-08-17T07:42:09.396Z,988.27
2016-08-17T07:43:09.398Z,988.26
2016-08-17T07:44:09.403Z,988.27
2016-08-17T07:45:09.627Z,988.29
2016-08-17T07:46:09.408Z,988.24
2016-08-17T07:47:09.410Z,988.29
2016-08-17T07:48:09.416Z,988.27
2016-08-17T07:49:09.418Z,988.25
2016-08-17T07:50:09.657Z,988.27
2016-08-17T07:51:09.424Z,988.29
2016-08-17T07:52:09.439Z,988.3
2016-08-17T07:53:09.437Z,988.31
2016-08-17T07:54:09.440Z,988.3
2016-08-17T07:55:09.658Z,988.36
2016-08-17T07:56:09.445Z,988.32
2016-08-17T07:57:09.444Z,988.29
2016-08-17T07:58:09.453Z,988.33
2016-08-17T07:59:09.457Z,988.3
2016-08-17T08:00:09.688Z,988.26
2016-08-17T08:01:09.458Z,988.26
2016-08-17T08:02:09.462Z,988.29
2016-08-17T08:03:09.465Z,988.28
2016-08-17T08:04:09.469Z,988.25
2016-08-17T08:05:09.713Z,988.25
2016-08-17T08:06:09.476Z,988.25
2016-08-17T08:07:09.480Z,988.25
2016-08-17T08:08:09.484Z,988.28
2016-08-17T08:09:09.485Z,988.27
2016-08-17T08:10:09.649Z,988.24
2016-08-17T08:11:09.494Z,988.24
2016-08-17T08:12:09.497Z,988.29
2016-08-17T08:13:09.507Z,988.27
2016-08-17T08:14:09.517Z,988.29
2016-08-17T08:15:09.704Z,988.25
2016-08-17T08:16:09.510Z,988.22
2016-08-17T08:17:09.519Z,988.23
2016-08-17T08:18:09.523Z,988.23
2016-08-17T08:19:09.524Z,988.24
2016-08-17T08:20:09.692Z,988.22
2016-08-17T08:21:09.529Z,988.24
2016-08-17T08:22:09.534Z,988.25
2016-08-17T08:23:09.537Z,988.2
2016-08-17T08:24:09.542Z,988.26
2016-08-17T08:25:09.733Z,988.26
2016-08-17T08:26:09.550Z,988.27
2016-08-17T08:27:09.554Z,988.3
2016-08-17T08:28:09.556Z,988.27
2016-08-17T08:29:09.561Z,988.28
2016-08-17T08:30:09.725Z,988.28
2016-08-17T08:31:09.568Z,988.3
2016-08-17T08:32:09.572Z,988.29
2016-08-17T08:33:09.582Z,988.27
2016-08-17T08:34:09.580Z,988.26
2016-08-17T08:35:09.754Z,988.28
2016-08-17T08:36:09.588Z,988.29
2016-08-17T08:37:09.592Z,988.27
2016-08-17T08:38:09.595Z,988.26
2016-08-17T08:39:09.601Z,988.27
2016-08-17T08:40:09.828Z,988.25
2016-08-17T08:41:09.608Z,988.25
2016-08-17T08:42:09.612Z,988.22
2016-08-17T08:43:09.615Z,988.26
2016-08-17T08:44:09.619Z,988.23
2016-08-17T08:45:09.809Z,988.25
2016-08-17T08:46:09.628Z,988.26
2016-08-17T08:47:09.632Z,988.27
2016-08-17T08:48:09.636Z,988.23
2016-08-17T08:49:09.639Z,988.22
2016-08-17T08:50:09.813Z,988.23
2016-08-17T08:51:09.652Z,988.22
2016-08-17T08:52:09.650Z,988.21
2016-08-17T08:53:09.661Z,988.22
2016-08-17T08:54:09.663Z,988.22
2016-08-17T08:55:09.915Z,988.16
2016-08-17T08:56:09.668Z,988.22
2016-08-17T08:57:09.672Z,988.21
2016-08-17T08:58:09.674Z,988.19
2016-08-17T08:59:09.679Z,988.18
2016-08-17T09:00:09.842Z,988.17
2016-08-17T09:01:09.687Z,988.17
2016-08-17T09:02:09.690Z,988.19
2016-08-17T09:03:09.695Z,988.18
2016-08-17T09:04:09.698Z,988.21
2016-08-17T09:05:09.874Z,988.18
2016-08-17T09:06:09.707Z,988.17
2016-08-17T09:07:09.711Z,988.19
2016-08-17T09:08:09.714Z,988.19
2016-08-17T09:09:09.718Z,988.19
2016-08-17T09:10:09.978Z,988.16
2016-08-17T09:11:09.727Z,988.17
2016-08-17T09:12:09.730Z,988.15
2016-08-17T09:13:09.735Z,988.11
2016-08-17T09:14:09.739Z,988.13
2016-08-17T09:15:09.946Z,988.08
2016-08-17T09:16:09.748Z,988.13
2016-08-17T09:17:09.752Z,988.14
2016-08-17T09:18:09.755Z,988.12
2016-08-17T09:19:09.759Z,988.14
2016-08-17T09:20:09.961Z,988.1
2016-08-17T09:21:09.767Z,988.09
2016-08-17T09:22:09.769Z,988.09
2016-08-17T09:23:09.774Z,988.06
2016-08-17T09:24:09.779Z,988.07
2016-08-17T09:25:10.000Z,988.09
2016-08-17T09:26:09.790Z,988.08
2016-08-17T09:27:09.793Z,988.08
2016-08-17T09:28:09.796Z,988.07
2016-08-17T09:29:09.797Z,988.04
2016-08-17T09:30:10.009Z,988.03
2016-08-17T09:31:09.806Z,988
2016-08-17T09:32:09.810Z,987.96
2016-08-17T09:33:09.814Z,987.96
2016-08-17T09:34:09.818Z,987.95
2016-08-17T09:35:10.053Z,987.95
2016-08-17T09:36:09.826Z,987.94
2016-08-17T09:37:09.833Z,987.92
2016-08-17T09:38:09.837Z,987.95
2016-08-17T09:39:09.837Z,987.95
2016-08-17T09:40:10.056Z,987.91
2016-08-17T09:41:09.844Z,987.91
2016-08-17T09:42:09.858Z,987.94
2016-08-17T09:43:09.862Z,987.96
2016-08-17T09:44:09.858Z,987.94
2016-08-17T09:45:10.075Z,987.86
2016-08-17T09:46:09.868Z,987.9
2016-08-17T09:47:09.869Z,987.92
2016-08-17T09:48:09.876Z,987.92
2016-08-17T09:49:09.885Z,987.92
2016-08-17T09:50:10.140Z,987.89
2016-08-17T09:51:09.883Z,987.97
2016-08-17T09:52:09.889Z,987.95
2016-08-17T09:53:09.898Z,987.95
2016-08-17T09:54:09.892Z,987.93
2016-08-17T09:55:10.154Z,987.9
2016-08-17T09:56:09.900Z,987.88
2016-08-17T09:57:09.907Z,987.87
2016-08-17T09:58:09.915Z,987.86
2016-08-17T09:59:09.910Z,987.86
2016-08-17T10:00:10.088Z,987.85
2016-08-17T10:01:09.925Z,987.85
2016-08-17T10:02:09.932Z,987.85
2016-08-17T10:03:09.933Z,987.85
2016-08-17T10:04:09.932Z,987.84
2016-08-17T10:05:10.114Z,987.81
2016-08-17T10:06:09.944Z,987.81
2016-08-17T10:07:09.955Z,987.82
2016-08-17T10:08:09.957Z,987.79
2016-08-17T10:09:09.954Z,987.82
2016-08-17T10:10:09.963Z,987.79
2016-08-17T10:11:09.969Z,987.78
2016-08-17T10:12:09.971Z,987.77
2016-08-17T10:13:09.967Z,987.74
2016-08-17T10:14:09.984Z,987.72
2016-08-17T10:15:10.121Z,987.69
2016-08-17T10:16:09.982Z,987.71
2016-08-17T10:17:09.998Z,987.61
2016-08-17T10:18:09.990Z,987.66
2016-08-17T10:19:09.998Z,987.66
2016-08-17T10:20:10.024Z,987.59
2016-08-17T10:21:10.014Z,987.61
2016-08-17T10:22:10.003Z,987.59
2016-08-17T10:23:10.005Z,987.59
2016-08-17T10:24:10.009Z,987.59
2016-08-17T10:25:10.154Z,987.62
2016-08-17T10:26:10.016Z,987.58
2016-08-17T10:27:10.019Z,987.6
2016-08-17T10:28:10.041Z,987.57
2016-08-17T10:29:10.035Z,987.57
2016-08-17T10:30:10.219Z,987.59
2016-08-17T10:31:10.044Z,987.57
2016-08-17T10:32:10.052Z,987.56
2016-08-17T10:33:10.060Z,987.53
2016-08-17T10:34:10.053Z,987.49
2016-08-17T10:35:10.277Z,987.52
2016-08-17T10:36:10.060Z,987.48
2016-08-17T10:37:10.063Z,987.51
2016-08-17T10:38:10.074Z,987.5
2016-08-17T10:39:10.080Z,987.47
2016-08-17T10:40:10.080Z,987.49
2016-08-17T10:41:10.091Z,987.41
2016-08-17T10:42:10.085Z,987.42
2016-08-17T10:43:10.097Z,987.39
2016-08-17T10:44:10.095Z,987.38
2016-08-17T10:45:10.098Z,987.35
2016-08-17T10:46:10.104Z,987.36
2016-08-17T10:47:10.106Z,987.39
2016-08-17T10:48:10.109Z,987.37
2016-08-17T10:49:10.113Z,987.4
2016-08-17T10:50:10.118Z,987.4
2016-08-17T10:51:10.136Z,987.44
2016-08-17T10:52:10.127Z,987.4
2016-08-17T10:53:10.140Z,987.37
2016-08-17T10:54:10.139Z,987.36
2016-08-17T10:55:10.142Z,987.34
2016-08-17T10:56:10.155Z,987.27
2016-08-17T10:57:10.155Z,987.27
2016-08-17T10:58:10.157Z,987.26
2016-08-17T10:59:10.168Z,987.26
2016-08-17T11:00:10.163Z,987.27
2016-08-17T11:01:10.169Z,987.29
2016-08-17T11:02:10.171Z,987.27
2016-08-17T11:03:10.176Z,987.24
2016-08-17T11:04:10.178Z,987.24
2016-08-17T11:05:10.192Z,987.22
2016-08-17T11:06:10.187Z,987.23
2016-08-17T11:07:10.193Z,987.24
2016-08-17T11:08:10.196Z,987.25
2016-08-17T11:09:10.206Z,987.25
2016-08-17T11:10:10.483Z,987.25
2016-08-17T11:11:10.231Z,987.23
2016-08-17T11:12:10.233Z,987.21
2016-08-17T11:13:10.219Z,987.22
2016-08-17T11:14:10.229Z,987.19
2016-08-17T11:15:10.245Z,987.19
2016-08-17T11:16:10.242Z,987.23
2016-08-17T11:17:10.237Z,987.23
2016-08-17T11:18:10.242Z,987.16
2016-08-17T11:19:10.246Z,987.16
2016-08-17T11:20:10.476Z,987.18
2016-08-17T11:21:10.256Z,987.15
2016-08-17T11:22:10.259Z,987.11
2016-08-17T11:23:10.264Z,987.14
2016-08-17T11:24:10.269Z,987.1
2016-08-17T11:25:10.275Z,987.07
2016-08-17T11:26:10.278Z,987.06
2016-08-17T11:27:10.283Z,987.13
2016-08-17T11:28:10.288Z,987.07
2016-08-17T11:29:10.299Z,987.09
2016-08-17T11:30:10.382Z,987.07
2016-08-17T11:31:10.302Z,987.07
2016-08-17T11:32:10.309Z,987.13
2016-08-17T11:33:10.311Z,987.12
2016-08-17T11:34:10.324Z,987.14
2016-08-17T11:35:10.333Z,987.11
2016-08-17T11:36:10.326Z,987.05
2016-08-17T11:37:10.330Z,987.1
2016-08-17T11:38:10.336Z,987.09
2016-08-17T11:39:10.340Z,987.08
2016-08-17T11:40:10.345Z,987.07
2016-08-17T11:41:10.350Z,987.06
2016-08-17T11:42:10.356Z,987.07
2016-08-17T11:43:10.363Z,987.08
2016-08-17T11:44:10.364Z,987.06
2016-08-17T11:45:10.396Z,987.08
2016-08-17T11:46:10.375Z,987.06
2016-08-17T11:47:10.380Z,987.06
2016-08-17T11:48:10.383Z,987.02
2016-08-17T11:49:10.388Z,987.03
2016-08-17T11:50:10.480Z,986.99
2016-08-17T11:51:10.399Z,986.97
2016-08-17T11:52:10.403Z,987.01
2016-08-17T11:53:10.413Z,986.99
2016-08-17T11:54:10.414Z,986.97
2016-08-17T11:55:10.577Z,986.92
2016-08-17T11:56:10.423Z,986.94
2016-08-17T11:57:10.430Z,986.97
2016-08-17T11:58:10.433Z,986.9
2016-08-17T11:59:10.444Z,986.93
2016-08-17T12:00:10.563Z,986.92
2016-08-17T12:01:10.452Z,986.95
2016-08-17T12:02:10.452Z,986.87
2016-08-17T12:03:10.457Z,986.9
2016-08-17T12:04:10.461Z,986.9
2016-08-17T12:05:10.467Z,986.91
2016-08-17T12:06:10.471Z,986.9
2016-08-17T12:07:10.476Z,986.87
2016-08-17T12:08:10.481Z,986.87
2016-08-17T12:09:10.486Z,986.81
2016-08-17T12:10:10.489Z,986.8
2016-08-17T12:11:10.497Z,986.81
2016-08-17T12:12:10.500Z,986.77
2016-08-17T12:13:10.507Z,986.82
2016-08-17T12:14:10.515Z,986.8
2016-08-17T12:15:10.516Z,986.79
2016-08-17T12:16:10.521Z,986.8
2016-08-17T12:17:10.525Z,986.76
2016-08-17T12:18:10.530Z,986.76
2016-08-17T12:19:10.542Z,986.78
2016-08-17T12:20:10.544Z,986.77
2016-08-17T12:21:10.546Z,986.69
2016-08-17T12:22:10.550Z,986.7
2016-08-17T12:23:10.567Z,986.67
2016-08-17T12:24:10.568Z,986.62
2016-08-17T12:25:10.793Z,986.61
2016-08-17T12:26:10.571Z,986.69
2016-08-17T12:27:10.576Z,986.64
2016-08-17T12:28:10.579Z,986.64
2016-08-17T12:29:10.584Z,986.63
2016-08-17T12:30:10.590Z,986.59
2016-08-17T12:31:10.597Z,986.6
2016-08-17T12:32:10.599Z,986.53